sensor_id;sensor_type;location;lat;lon;timestamp;P1;durP1;ratioP1;P2;durP2;ratioP2
80408;SDS011;69741;49.464;10.986;2023-04-28T00:00:54;9.60;;;4.00;;
80408;SDS011;69741;49.464;10.986;2023-04-28T00:03:20;7.35;;;3.45;;
80408;SDS011;69741;49.464;10.986;2023-04-28T00:05:45;6.80;;;3.60;;
80408;SDS011;69741;49.464;10.986;2023-04-28T00:08:11;8.30;;;3.63;;
80408;SDS011;69741;49.464;10.986;2023-04-28T00:10:36;9.50;;;4.13;;
80408;SDS011;69741;49.464;10.986;2023-04-28T00:13:01;6.23;;;3.30;;
80408;SDS011;69741;49.464;10.986;2023-04-28T00:15:27;7.78;;;4.28;;
80408;SDS011;69741;49.464;10.986;2023-04-28T00:17:52;8.95;;;3.90;;
80408;SDS011;69741;49.464;10.986;2023-04-28T00:20:18;6.78;;;3.58;;
80408;SDS011;69741;49.464;10.986;2023-04-28T00:22:43;6.33;;;4.10;;
80408;SDS011;69741;49.464;10.986;2023-04-28T00:25:08;7.90;;;3.97;;
80408;SDS011;69741;49.464;10.986;2023-04-28T00:27:34;8.17;;;3.47;;
80408;SDS011;69741;49.464;10.986;2023-04-28T00:29:59;8.48;;;3.80;;
80408;SDS011;69741;49.464;10.986;2023-04-28T00:32:24;7.80;;;2.83;;
80408;SDS011;69741;49.464;10.986;2023-04-28T00:34:50;8.60;;;3.60;;
80408;SDS011;69741;49.464;10.986;2023-04-28T00:37:15;7.35;;;3.70;;
80408;SDS011;69741;49.464;10.986;2023-04-28T00:39:40;8.80;;;3.53;;
80408;SDS011;69741;49.464;10.986;2023-04-28T00:42:06;6.43;;;3.43;;
80408;SDS011;69741;49.464;10.986;2023-04-28T00:44:31;7.83;;;4.00;;
80408;SDS011;69741;49.464;10.986;2023-04-28T00:46:57;7.05;;;4.25;;
80408;SDS011;69741;49.464;10.986;2023-04-28T00:49:22;9.20;;;3.35;;
80408;SDS011;69741;49.464;10.986;2023-04-28T00:51:47;7.47;;;4.20;;
80408;SDS011;69741;49.464;10.986;2023-04-28T00:54:12;5.78;;;3.13;;
80408;SDS011;69741;49.464;10.986;2023-04-28T00:56:38;7.05;;;3.20;;
80408;SDS011;69741;49.464;10.986;2023-04-28T00:59:03;7.93;;;3.50;;
80408;SDS011;69741;49.464;10.986;2023-04-28T01:01:28;7.37;;;3.50;;
80408;SDS011;69741;49.464;10.986;2023-04-28T01:03:54;10.13;;;3.20;;
80408;SDS011;69741;49.464;10.986;2023-04-28T01:06:19;7.00;;;2.88;;
80408;SDS011;69741;49.464;10.986;2023-04-28T01:08:47;6.25;;;4.03;;
80408;SDS011;69741;49.464;10.986;2023-04-28T01:11:12;6.85;;;3.58;;
80408;SDS011;69741;49.464;10.986;2023-04-28T01:13:38;7.13;;;3.15;;
80408;SDS011;69741;49.464;10.986;2023-04-28T01:16:03;8.40;;;3.38;;
80408;SDS011;69741;49.464;10.986;2023-04-28T01:18:28;8.68;;;3.42;;
80408;SDS011;69741;49.464;10.986;2023-04-28T01:20:55;7.60;;;3.67;;
80408;SDS011;69741;49.464;10.986;2023-04-28T01:23:20;6.78;;;3.75;;
80408;SDS011;69741;49.464;10.986;2023-04-28T01:25:46;5.97;;;2.77;;
80408;SDS011;69741;49.464;10.986;2023-04-28T01:28:11;8.73;;;2.83;;
80408;SDS011;69741;49.464;10.986;2023-04-28T01:30:36;6.17;;;3.00;;
80408;SDS011;69741;49.464;10.986;2023-04-28T01:33:02;5.80;;;2.75;;
80408;SDS011;69741;49.464;10.986;2023-04-28T01:35:27;6.03;;;3.00;;
80408;SDS011;69741;49.464;10.986;2023-04-28T01:37:52;6.90;;;3.35;;
80408;SDS011;69741;49.464;10.986;2023-04-28T01:40:17;6.50;;;2.77;;
80408;SDS011;69741;49.464;10.986;2023-04-28T01:42:43;7.13;;;3.17;;
80408;SDS011;69741;49.464;10.986;2023-04-28T01:45:08;5.67;;;3.17;;
80408;SDS011;69741;49.464;10.986;2023-04-28T01:47:33;6.50;;;3.03;;
80408;SDS011;69741;49.464;10.986;2023-04-28T01:49:58;6.87;;;2.90;;
80408;SDS011;69741;49.464;10.986;2023-04-28T01:52:24;8.70;;;3.07;;
80408;SDS011;69741;49.464;10.986;2023-04-28T01:54:51;6.30;;;2.75;;
80408;SDS011;69741;49.464;10.986;2023-04-28T01:57:16;5.97;;;2.57;;
80408;SDS011;69741;49.464;10.986;2023-04-28T01:59:41;6.63;;;2.75;;
80408;SDS011;69741;49.464;10.986;2023-04-28T02:02:06;6.47;;;3.03;;
80408;SDS011;69741;49.464;10.986;2023-04-28T02:04:32;5.60;;;3.03;;
80408;SDS011;69741;49.464;10.986;2023-04-28T02:06:57;7.30;;;3.60;;
80408;SDS011;69741;49.464;10.986;2023-04-28T02:09:23;7.07;;;3.85;;
80408;SDS011;69741;49.464;10.986;2023-04-28T02:11:48;6.37;;;2.53;;
80408;SDS011;69741;49.464;10.986;2023-04-28T02:14:13;18.17;;;3.83;;
80408;SDS011;69741;49.464;10.986;2023-04-28T02:16:38;6.80;;;3.30;;
80408;SDS011;69741;49.464;10.986;2023-04-28T02:19:04;5.80;;;3.20;;
80408;SDS011;69741;49.464;10.986;2023-04-28T02:21:29;6.53;;;3.57;;
80408;SDS011;69741;49.464;10.986;2023-04-28T02:23:54;8.02;;;3.28;;
80408;SDS011;69741;49.464;10.986;2023-04-28T02:26:20;8.77;;;2.97;;
80408;SDS011;69741;49.464;10.986;2023-04-28T02:28:45;7.72;;;3.22;;
80408;SDS011;69741;49.464;10.986;2023-04-28T02:31:10;6.23;;;3.30;;
80408;SDS011;69741;49.464;10.986;2023-04-28T02:33:36;9.45;;;3.70;;
80408;SDS011;69741;49.464;10.986;2023-04-28T02:36:02;10.07;;;3.72;;
80408;SDS011;69741;49.464;10.986;2023-04-28T02:38:27;10.20;;;3.55;;
80408;SDS011;69741;49.464;10.986;2023-04-28T02:40:56;9.17;;;3.33;;
80408;SDS011;69741;49.464;10.986;2023-04-28T02:43:22;7.35;;;3.13;;
80408;SDS011;69741;49.464;10.986;2023-04-28T02:45:47;8.57;;;3.47;;
80408;SDS011;69741;49.464;10.986;2023-04-28T02:48:12;6.88;;;3.28;;
80408;SDS011;69741;49.464;10.986;2023-04-28T02:50:38;6.53;;;3.35;;
80408;SDS011;69741;49.464;10.986;2023-04-28T02:53:03;8.97;;;3.37;;
80408;SDS011;69741;49.464;10.986;2023-04-28T02:55:28;6.60;;;3.28;;
80408;SDS011;69741;49.464;10.986;2023-04-28T02:57:53;8.00;;;4.83;;
80408;SDS011;69741;49.464;10.986;2023-04-28T03:00:18;7.40;;;3.47;;
80408;SDS011;69741;49.464;10.986;2023-04-28T03:02:43;6.80;;;3.40;;
80408;SDS011;69741;49.464;10.986;2023-04-28T03:05:08;5.90;;;3.30;;
80408;SDS011;69741;49.464;10.986;2023-04-28T03:07:34;9.17;;;3.70;;
80408;SDS011;69741;49.464;10.986;2023-04-28T03:09:59;7.17;;;3.30;;
80408;SDS011;69741;49.464;10.986;2023-04-28T03:12:24;7.55;;;3.80;;
80408;SDS011;69741;49.464;10.986;2023-04-28T03:14:50;7.90;;;3.63;;
80408;SDS011;69741;49.464;10.986;2023-04-28T03:17:15;9.75;;;3.78;;
80408;SDS011;69741;49.464;10.986;2023-04-28T03:19:40;7.73;;;3.87;;
80408;SDS011;69741;49.464;10.986;2023-04-28T03:22:05;6.37;;;2.87;;
80408;SDS011;69741;49.464;10.986;2023-04-28T03:24:30;6.15;;;3.20;;
80408;SDS011;69741;49.464;10.986;2023-04-28T03:26:55;7.65;;;4.32;;
80408;SDS011;69741;49.464;10.986;2023-04-28T03:29:20;6.63;;;3.27;;
80408;SDS011;69741;49.464;10.986;2023-04-28T03:31:48;6.80;;;3.35;;
80408;SDS011;69741;49.464;10.986;2023-04-28T03:34:13;9.17;;;3.27;;
80408;SDS011;69741;49.464;10.986;2023-04-28T03:36:38;6.23;;;2.90;;
80408;SDS011;69741;49.464;10.986;2023-04-28T03:39:03;6.13;;;2.88;;
80408;SDS011;69741;49.464;10.986;2023-04-28T03:41:28;7.78;;;3.80;;
80408;SDS011;69741;49.464;10.986;2023-04-28T03:43:54;7.57;;;3.17;;
80408;SDS011;69741;49.464;10.986;2023-04-28T03:46:20;6.55;;;3.60;;
80408;SDS011;69741;49.464;10.986;2023-04-28T03:48:45;7.27;;;3.50;;
80408;SDS011;69741;49.464;10.986;2023-04-28T03:51:10;8.35;;;4.00;;
80408;SDS011;69741;49.464;10.986;2023-04-28T03:53:36;7.05;;;4.47;;
80408;SDS011;69741;49.464;10.986;2023-04-28T03:56:01;8.00;;;3.80;;
80408;SDS011;69741;49.464;10.986;2023-04-28T03:58:26;5.70;;;2.70;;
80408;SDS011;69741;49.464;10.986;2023-04-28T04:00:52;7.78;;;4.03;;
80408;SDS011;69741;49.464;10.986;2023-04-28T04:03:18;7.10;;;3.38;;
80408;SDS011;69741;49.464;10.986;2023-04-28T04:05:45;9.02;;;3.55;;
80408;SDS011;69741;49.464;10.986;2023-04-28T04:08:10;9.67;;;3.97;;
80408;SDS011;69741;49.464;10.986;2023-04-28T04:10:35;8.23;;;3.55;;
80408;SDS011;69741;49.464;10.986;2023-04-28T04:13:01;7.33;;;3.63;;
80408;SDS011;69741;49.464;10.986;2023-04-28T04:15:26;7.75;;;3.78;;
80408;SDS011;69741;49.464;10.986;2023-04-28T04:17:51;10.00;;;3.43;;
80408;SDS011;69741;49.464;10.986;2023-04-28T04:20:16;9.25;;;3.38;;
80408;SDS011;69741;49.464;10.986;2023-04-28T04:22:41;8.63;;;4.32;;
80408;SDS011;69741;49.464;10.986;2023-04-28T04:25:07;7.47;;;3.50;;
80408;SDS011;69741;49.464;10.986;2023-04-28T04:27:32;6.87;;;3.87;;
80408;SDS011;69741;49.464;10.986;2023-04-28T04:29:57;11.40;;;4.10;;
80408;SDS011;69741;49.464;10.986;2023-04-28T04:32:22;7.47;;;3.83;;
80408;SDS011;69741;49.464;10.986;2023-04-28T04:34:47;8.63;;;3.63;;
80408;SDS011;69741;49.464;10.986;2023-04-28T04:37:12;9.23;;;3.50;;
80408;SDS011;69741;49.464;10.986;2023-04-28T04:39:37;8.15;;;3.20;;
80408;SDS011;69741;49.464;10.986;2023-04-28T04:42:03;8.13;;;3.67;;
80408;SDS011;69741;49.464;10.986;2023-04-28T04:44:28;6.50;;;3.30;;
80408;SDS011;69741;49.464;10.986;2023-04-28T04:46:53;8.90;;;3.87;;
80408;SDS011;69741;49.464;10.986;2023-04-28T04:49:18;6.75;;;3.50;;
80408;SDS011;69741;49.464;10.986;2023-04-28T04:51:43;7.22;;;3.67;;
80408;SDS011;69741;49.464;10.986;2023-04-28T04:54:08;9.63;;;3.90;;
80408;SDS011;69741;49.464;10.986;2023-04-28T04:56:33;7.93;;;3.63;;
80408;SDS011;69741;49.464;10.986;2023-04-28T04:58:59;11.47;;;3.77;;
80408;SDS011;69741;49.464;10.986;2023-04-28T05:01:24;7.20;;;3.40;;
80408;SDS011;69741;49.464;10.986;2023-04-28T05:03:49;7.17;;;3.37;;
80408;SDS011;69741;49.464;10.986;2023-04-28T05:06:14;8.88;;;3.47;;
80408;SDS011;69741;49.464;10.986;2023-04-28T05:08:40;7.73;;;3.67;;
80408;SDS011;69741;49.464;10.986;2023-04-28T05:11:05;9.35;;;3.85;;
80408;SDS011;69741;49.464;10.986;2023-04-28T05:13:30;6.57;;;3.70;;
80408;SDS011;69741;49.464;10.986;2023-04-28T05:15:55;9.63;;;3.70;;
80408;SDS011;69741;49.464;10.986;2023-04-28T05:18:20;7.00;;;3.45;;
80408;SDS011;69741;49.464;10.986;2023-04-28T05:20:46;7.10;;;3.55;;
80408;SDS011;69741;49.464;10.986;2023-04-28T05:23:11;7.83;;;3.67;;
80408;SDS011;69741;49.464;10.986;2023-04-28T05:25:36;6.73;;;3.33;;
80408;SDS011;69741;49.464;10.986;2023-04-28T05:28:01;7.33;;;3.47;;
80408;SDS011;69741;49.464;10.986;2023-04-28T05:30:31;9.88;;;3.97;;
80408;SDS011;69741;49.464;10.986;2023-04-28T05:32:56;8.60;;;3.37;;
80408;SDS011;69741;49.464;10.986;2023-04-28T05:35:21;11.23;;;3.55;;
80408;SDS011;69741;49.464;10.986;2023-04-28T05:37:46;7.82;;;3.88;;
80408;SDS011;69741;49.464;10.986;2023-04-28T05:40:12;8.13;;;4.40;;
80408;SDS011;69741;49.464;10.986;2023-04-28T05:42:37;6.85;;;3.30;;
80408;SDS011;69741;49.464;10.986;2023-04-28T05:45:02;6.17;;;3.80;;
80408;SDS011;69741;49.464;10.986;2023-04-28T05:47:27;8.33;;;3.43;;
80408;SDS011;69741;49.464;10.986;2023-04-28T05:49:54;8.48;;;3.67;;
80408;SDS011;69741;49.464;10.986;2023-04-28T05:52:19;7.75;;;4.10;;
80408;SDS011;69741;49.464;10.986;2023-04-28T05:54:44;8.57;;;3.67;;
80408;SDS011;69741;49.464;10.986;2023-04-28T05:57:09;8.33;;;3.33;;
80408;SDS011;69741;49.464;10.986;2023-04-28T05:59:35;11.53;;;3.70;;
80408;SDS011;69741;49.464;10.986;2023-04-28T06:02:00;8.95;;;3.45;;
80408;SDS011;69741;49.464;10.986;2023-04-28T06:04:25;7.27;;;3.80;;
80408;SDS011;69741;49.464;10.986;2023-04-28T06:06:51;8.43;;;3.67;;
80408;SDS011;69741;49.464;10.986;2023-04-28T06:09:16;7.35;;;3.58;;
80408;SDS011;69741;49.464;10.986;2023-04-28T06:11:41;6.70;;;3.80;;
80408;SDS011;69741;49.464;10.986;2023-04-28T06:14:06;7.10;;;4.75;;
80408;SDS011;69741;49.464;10.986;2023-04-28T06:16:31;7.87;;;3.50;;
80408;SDS011;69741;49.464;10.986;2023-04-28T06:18:56;9.93;;;3.67;;
80408;SDS011;69741;49.464;10.986;2023-04-28T06:21:22;5.80;;;3.47;;
80408;SDS011;69741;49.464;10.986;2023-04-28T06:23:48;7.07;;;4.70;;
80408;SDS011;69741;49.464;10.986;2023-04-28T06:26:14;13.10;;;4.30;;
80408;SDS011;69741;49.464;10.986;2023-04-28T06:28:39;12.30;;;3.97;;
80408;SDS011;69741;49.464;10.986;2023-04-28T06:31:04;7.43;;;4.05;;
80408;SDS011;69741;49.464;10.986;2023-04-28T06:33:29;7.90;;;3.67;;
80408;SDS011;69741;49.464;10.986;2023-04-28T06:35:55;7.77;;;3.97;;
80408;SDS011;69741;49.464;10.986;2023-04-28T06:38:20;8.90;;;3.97;;
80408;SDS011;69741;49.464;10.986;2023-04-28T06:40:45;7.63;;;3.50;;
80408;SDS011;69741;49.464;10.986;2023-04-28T06:43:11;7.83;;;4.13;;
80408;SDS011;69741;49.464;10.986;2023-04-28T06:45:36;8.15;;;3.75;;
80408;SDS011;69741;49.464;10.986;2023-04-28T06:48:02;10.40;;;3.97;;
80408;SDS011;69741;49.464;10.986;2023-04-28T06:50:27;8.40;;;4.28;;
80408;SDS011;69741;49.464;10.986;2023-04-28T06:52:52;7.67;;;3.13;;
80408;SDS011;69741;49.464;10.986;2023-04-28T06:55:17;7.03;;;3.85;;
80408;SDS011;69741;49.464;10.986;2023-04-28T06:57:42;9.27;;;4.43;;
80408;SDS011;69741;49.464;10.986;2023-04-28T07:00:08;10.00;;;3.87;;
80408;SDS011;69741;49.464;10.986;2023-04-28T07:02:34;7.05;;;3.30;;
80408;SDS011;69741;49.464;10.986;2023-04-28T07:05:00;6.78;;;3.53;;
80408;SDS011;69741;49.464;10.986;2023-04-28T07:07:25;8.90;;;3.63;;
80408;SDS011;69741;49.464;10.986;2023-04-28T07:09:51;11.10;;;4.10;;
80408;SDS011;69741;49.464;10.986;2023-04-28T07:12:17;7.53;;;3.80;;
80408;SDS011;69741;49.464;10.986;2023-04-28T07:14:42;9.38;;;4.00;;
80408;SDS011;69741;49.464;10.986;2023-04-28T07:17:07;8.82;;;3.42;;
80408;SDS011;69741;49.464;10.986;2023-04-28T07:19:32;9.33;;;3.70;;
80408;SDS011;69741;49.464;10.986;2023-04-28T07:21:58;11.03;;;4.23;;
80408;SDS011;69741;49.464;10.986;2023-04-28T07:24:23;9.57;;;3.90;;
80408;SDS011;69741;49.464;10.986;2023-04-28T07:26:48;8.27;;;4.05;;
80408;SDS011;69741;49.464;10.986;2023-04-28T07:29:14;6.78;;;4.20;;
80408;SDS011;69741;49.464;10.986;2023-04-28T07:31:40;9.02;;;4.38;;
80408;SDS011;69741;49.464;10.986;2023-04-28T07:34:05;8.07;;;3.40;;
80408;SDS011;69741;49.464;10.986;2023-04-28T07:36:31;8.80;;;4.53;;
80408;SDS011;69741;49.464;10.986;2023-04-28T07:38:56;9.00;;;4.47;;
80408;SDS011;69741;49.464;10.986;2023-04-28T07:41:21;10.80;;;4.40;;
80408;SDS011;69741;49.464;10.986;2023-04-28T07:43:47;11.20;;;4.88;;
80408;SDS011;69741;49.464;10.986;2023-04-28T07:46:13;8.98;;;4.35;;
80408;SDS011;69741;49.464;10.986;2023-04-28T07:48:38;9.13;;;4.50;;
80408;SDS011;69741;49.464;10.986;2023-04-28T07:51:03;10.93;;;4.88;;
80408;SDS011;69741;49.464;10.986;2023-04-28T07:53:28;8.38;;;4.68;;
80408;SDS011;69741;49.464;10.986;2023-04-28T07:55:53;10.00;;;5.17;;
80408;SDS011;69741;49.464;10.986;2023-04-28T07:58:19;7.27;;;4.77;;
80408;SDS011;69741;49.464;10.986;2023-04-28T08:00:44;8.05;;;4.32;;
80408;SDS011;69741;49.464;10.986;2023-04-28T08:03:09;9.93;;;4.50;;
80408;SDS011;69741;49.464;10.986;2023-04-28T08:05:34;10.17;;;4.33;;
80408;SDS011;69741;49.464;10.986;2023-04-28T08:08:00;12.60;;;5.63;;
80408;SDS011;69741;49.464;10.986;2023-04-28T08:10:25;9.30;;;4.93;;
80408;SDS011;69741;49.464;10.986;2023-04-28T08:12:50;9.95;;;4.50;;
80408;SDS011;69741;49.464;10.986;2023-04-28T08:15:15;9.23;;;3.90;;
80408;SDS011;69741;49.464;10.986;2023-04-28T08:17:41;10.20;;;4.55;;
80408;SDS011;69741;49.464;10.986;2023-04-28T08:20:07;13.60;;;5.63;;
80408;SDS011;69741;49.464;10.986;2023-04-28T08:22:32;8.10;;;4.07;;
80408;SDS011;69741;49.464;10.986;2023-04-28T08:24:57;10.50;;;5.80;;
80408;SDS011;69741;49.464;10.986;2023-04-28T08:27:22;8.23;;;4.43;;
80408;SDS011;69741;49.464;10.986;2023-04-28T08:29:49;10.55;;;4.43;;
80408;SDS011;69741;49.464;10.986;2023-04-28T08:32:14;8.20;;;4.17;;
80408;SDS011;69741;49.464;10.986;2023-04-28T08:34:40;8.70;;;4.15;;
80408;SDS011;69741;49.464;10.986;2023-04-28T08:37:05;8.27;;;4.15;;
80408;SDS011;69741;49.464;10.986;2023-04-28T08:39:30;9.02;;;3.90;;
80408;SDS011;69741;49.464;10.986;2023-04-28T08:41:58;8.88;;;4.40;;
80408;SDS011;69741;49.464;10.986;2023-04-28T08:44:23;9.00;;;3.97;;
80408;SDS011;69741;49.464;10.986;2023-04-28T08:46:48;6.70;;;4.15;;
80408;SDS011;69741;49.464;10.986;2023-04-28T08:49:14;9.25;;;4.13;;
80408;SDS011;69741;49.464;10.986;2023-04-28T08:51:44;11.73;;;5.20;;
80408;SDS011;69741;49.464;10.986;2023-04-28T08:54:09;8.75;;;4.95;;
80408;SDS011;69741;49.464;10.986;2023-04-28T08:56:37;10.05;;;4.35;;
80408;SDS011;69741;49.464;10.986;2023-04-28T08:59:03;10.27;;;4.90;;
80408;SDS011;69741;49.464;10.986;2023-04-28T09:01:29;8.30;;;4.30;;
80408;SDS011;69741;49.464;10.986;2023-04-28T09:03:54;9.57;;;5.47;;
80408;SDS011;69741;49.464;10.986;2023-04-28T09:06:19;8.90;;;4.43;;
80408;SDS011;69741;49.464;10.986;2023-04-28T09:08:46;9.25;;;4.60;;
80408;SDS011;69741;49.464;10.986;2023-04-28T09:11:11;8.67;;;4.10;;
80408;SDS011;69741;49.464;10.986;2023-04-28T09:13:37;7.97;;;4.50;;
80408;SDS011;69741;49.464;10.986;2023-04-28T09:16:04;9.20;;;4.45;;
80408;SDS011;69741;49.464;10.986;2023-04-28T09:18:29;9.02;;;4.70;;
80408;SDS011;69741;49.464;10.986;2023-04-28T09:21:07;8.25;;;4.07;;
80408;SDS011;69741;49.464;10.986;2023-04-28T09:23:33;7.65;;;4.25;;
80408;SDS011;69741;49.464;10.986;2023-04-28T09:28:24;11.30;;;6.40;;
80408;SDS011;69741;49.464;10.986;2023-04-28T09:30:49;9.60;;;4.28;;
80408;SDS011;69741;49.464;10.986;2023-04-28T09:33:15;8.23;;;4.33;;
80408;SDS011;69741;49.464;10.986;2023-04-28T09:35:40;9.27;;;4.70;;
80408;SDS011;69741;49.464;10.986;2023-04-28T09:38:06;9.63;;;5.07;;
80408;SDS011;69741;49.464;10.986;2023-04-28T09:40:31;10.47;;;5.27;;
80408;SDS011;69741;49.464;10.986;2023-04-28T09:42:56;10.97;;;4.80;;
80408;SDS011;69741;49.464;10.986;2023-04-28T09:45:21;9.93;;;4.95;;
80408;SDS011;69741;49.464;10.986;2023-04-28T09:47:47;7.60;;;5.10;;
80408;SDS011;69741;49.464;10.986;2023-04-28T09:50:14;11.18;;;4.45;;
80408;SDS011;69741;49.464;10.986;2023-04-28T09:52:41;9.65;;;4.38;;
80408;SDS011;69741;49.464;10.986;2023-04-28T09:55:07;9.10;;;4.75;;
80408;SDS011;69741;49.464;10.986;2023-04-28T09:57:35;7.82;;;4.88;;
80408;SDS011;69741;49.464;10.986;2023-04-28T10:00:01;10.75;;;4.45;;
80408;SDS011;69741;49.464;10.986;2023-04-28T10:02:30;9.32;;;5.15;;
80408;SDS011;69741;49.464;10.986;2023-04-28T10:04:56;10.15;;;5.32;;
80408;SDS011;69741;49.464;10.986;2023-04-28T10:07:22;13.10;;;5.15;;
80408;SDS011;69741;49.464;10.986;2023-04-28T10:09:47;9.60;;;4.90;;
80408;SDS011;69741;49.464;10.986;2023-04-28T10:12:15;12.35;;;5.45;;
80408;SDS011;69741;49.464;10.986;2023-04-28T10:14:40;8.70;;;4.47;;
80408;SDS011;69741;49.464;10.986;2023-04-28T10:17:06;9.43;;;4.65;;
80408;SDS011;69741;49.464;10.986;2023-04-28T10:19:32;11.73;;;4.65;;
80408;SDS011;69741;49.464;10.986;2023-04-28T10:22:05;8.88;;;4.68;;
80408;SDS011;69741;49.464;10.986;2023-04-28T10:24:33;9.93;;;5.18;;
80408;SDS011;69741;49.464;10.986;2023-04-28T10:27:10;11.23;;;5.65;;
80408;SDS011;69741;49.464;10.986;2023-04-28T10:29:36;12.10;;;6.50;;
80408;SDS011;69741;49.464;10.986;2023-04-28T10:32:20;10.85;;;4.72;;
80408;SDS011;69741;49.464;10.986;2023-04-28T10:34:47;9.70;;;5.40;;
80408;SDS011;69741;49.464;10.986;2023-04-28T10:37:12;9.70;;;4.90;;
80408;SDS011;69741;49.464;10.986;2023-04-28T10:39:39;11.82;;;5.93;;
80408;SDS011;69741;49.464;10.986;2023-04-28T10:42:04;13.88;;;5.43;;
80408;SDS011;69741;49.464;10.986;2023-04-28T10:47:01;9.38;;;5.47;;
80408;SDS011;69741;49.464;10.986;2023-04-28T10:57:39;9.68;;;4.03;;
80408;SDS011;69741;49.464;10.986;2023-04-28T11:00:38;8.93;;;4.68;;
80408;SDS011;69741;49.464;10.986;2023-04-28T11:02:57;8.48;;;4.53;;
80408;SDS011;69741;49.464;10.986;2023-04-28T11:05:22;8.40;;;4.10;;
80408;SDS011;69741;49.464;10.986;2023-04-28T11:08:29;9.57;;;4.53;;
80408;SDS011;69741;49.464;10.986;2023-04-28T11:13:33;8.05;;;3.95;;
80408;SDS011;69741;49.464;10.986;2023-04-28T11:16:02;9.55;;;5.45;;
80408;SDS011;69741;49.464;10.986;2023-04-28T11:18:28;7.28;;;4.35;;
80408;SDS011;69741;49.464;10.986;2023-04-28T11:20:54;8.50;;;4.10;;
80408;SDS011;69741;49.464;10.986;2023-04-28T11:23:21;8.93;;;5.38;;
80408;SDS011;69741;49.464;10.986;2023-04-28T11:25:52;8.52;;;4.15;;
80408;SDS011;69741;49.464;10.986;2023-04-28T11:28:17;7.93;;;5.22;;
80408;SDS011;69741;49.464;10.986;2023-04-28T11:30:42;8.57;;;4.73;;
80408;SDS011;69741;49.464;10.986;2023-04-28T11:33:08;8.18;;;4.75;;
80408;SDS011;69741;49.464;10.986;2023-04-28T11:35:42;6.70;;;3.80;;
80408;SDS011;69741;49.464;10.986;2023-04-28T11:38:07;6.82;;;3.55;;
80408;SDS011;69741;49.464;10.986;2023-04-28T11:40:32;8.73;;;3.50;;
80408;SDS011;69741;49.464;10.986;2023-04-28T11:42:57;6.13;;;4.00;;
80408;SDS011;69741;49.464;10.986;2023-04-28T11:45:27;6.88;;;3.72;;
80408;SDS011;69741;49.464;10.986;2023-04-28T11:47:53;6.87;;;3.77;;
80408;SDS011;69741;49.464;10.986;2023-04-28T11:50:34;8.30;;;4.18;;
80408;SDS011;69741;49.464;10.986;2023-04-28T11:52:59;6.72;;;3.97;;
80408;SDS011;69741;49.464;10.986;2023-04-28T11:55:24;7.30;;;4.60;;
80408;SDS011;69741;49.464;10.986;2023-04-28T12:03:31;8.90;;;4.75;;
80408;SDS011;69741;49.464;10.986;2023-04-28T12:05:56;7.57;;;4.50;;
80408;SDS011;69741;49.464;10.986;2023-04-28T12:08:28;8.77;;;5.93;;
80408;SDS011;69741;49.464;10.986;2023-04-28T12:11:06;8.55;;;4.13;;
80408;SDS011;69741;49.464;10.986;2023-04-28T12:13:32;8.15;;;4.07;;
80408;SDS011;69741;49.464;10.986;2023-04-28T12:15:57;6.97;;;3.83;;
80408;SDS011;69741;49.464;10.986;2023-04-28T12:18:25;6.60;;;3.28;;
80408;SDS011;69741;49.464;10.986;2023-04-28T12:20:51;5.90;;;3.57;;
80408;SDS011;69741;49.464;10.986;2023-04-28T12:23:27;7.32;;;3.15;;
80408;SDS011;69741;49.464;10.986;2023-04-28T12:25:52;6.53;;;3.00;;
80408;SDS011;69741;49.464;10.986;2023-04-28T12:28:17;6.53;;;3.63;;
80408;SDS011;69741;49.464;10.986;2023-04-28T12:30:42;6.27;;;3.73;;
80408;SDS011;69741;49.464;10.986;2023-04-28T12:33:21;7.90;;;3.47;;
80408;SDS011;69741;49.464;10.986;2023-04-28T12:35:46;6.07;;;3.40;;
80408;SDS011;69741;49.464;10.986;2023-04-28T12:38:13;5.65;;;3.13;;
80408;SDS011;69741;49.464;10.986;2023-04-28T12:40:38;5.78;;;3.25;;
80408;SDS011;69741;49.464;10.986;2023-04-28T12:43:03;5.55;;;3.20;;
80408;SDS011;69741;49.464;10.986;2023-04-28T12:45:28;6.40;;;3.75;;
80408;SDS011;69741;49.464;10.986;2023-04-28T12:47:55;5.80;;;3.20;;
80408;SDS011;69741;49.464;10.986;2023-04-28T12:50:21;5.53;;;3.00;;
80408;SDS011;69741;49.464;10.986;2023-04-28T12:52:46;6.00;;;3.35;;
80408;SDS011;69741;49.464;10.986;2023-04-28T12:55:11;6.30;;;3.42;;
80408;SDS011;69741;49.464;10.986;2023-04-28T12:57:36;5.67;;;3.17;;
80408;SDS011;69741;49.464;10.986;2023-04-28T13:00:02;6.80;;;3.20;;
80408;SDS011;69741;49.464;10.986;2023-04-28T13:02:28;7.45;;;3.90;;
80408;SDS011;69741;49.464;10.986;2023-04-28T13:04:53;7.27;;;4.60;;
80408;SDS011;69741;49.464;10.986;2023-04-28T13:07:18;7.15;;;3.90;;
80408;SDS011;69741;49.464;10.986;2023-04-28T13:09:43;5.83;;;3.70;;
80408;SDS011;69741;49.464;10.986;2023-04-28T13:12:09;6.22;;;3.67;;
80408;SDS011;69741;49.464;10.986;2023-04-28T13:14:35;5.45;;;3.03;;
80408;SDS011;69741;49.464;10.986;2023-04-28T13:17:00;7.57;;;3.77;;
80408;SDS011;69741;49.464;10.986;2023-04-28T13:19:27;6.47;;;3.15;;
80408;SDS011;69741;49.464;10.986;2023-04-28T13:21:53;6.53;;;3.67;;
80408;SDS011;69741;49.464;10.986;2023-04-28T13:24:19;5.60;;;3.00;;
80408;SDS011;69741;49.464;10.986;2023-04-28T13:26:44;5.53;;;2.87;;
80408;SDS011;69741;49.464;10.986;2023-04-28T13:29:09;6.93;;;3.13;;
80408;SDS011;69741;49.464;10.986;2023-04-28T13:31:35;6.75;;;3.50;;
80408;SDS011;69741;49.464;10.986;2023-04-28T13:34:00;6.03;;;2.80;;
80408;SDS011;69741;49.464;10.986;2023-04-28T13:36:26;5.78;;;2.80;;
80408;SDS011;69741;49.464;10.986;2023-04-28T13:38:53;8.02;;;3.28;;
80408;SDS011;69741;49.464;10.986;2023-04-28T13:41:18;8.13;;;3.53;;
80408;SDS011;69741;49.464;10.986;2023-04-28T13:43:43;6.33;;;3.13;;
80408;SDS011;69741;49.464;10.986;2023-04-28T13:46:09;6.20;;;2.93;;
80408;SDS011;69741;49.464;10.986;2023-04-28T13:48:34;5.80;;;3.00;;
80408;SDS011;69741;49.464;10.986;2023-04-28T13:51:00;6.28;;;2.90;;
80408;SDS011;69741;49.464;10.986;2023-04-28T13:53:25;5.63;;;3.20;;
80408;SDS011;69741;49.464;10.986;2023-04-28T13:55:50;5.47;;;3.63;;
80408;SDS011;69741;49.464;10.986;2023-04-28T13:58:17;6.18;;;2.75;;
80408;SDS011;69741;49.464;10.986;2023-04-28T14:00:42;5.63;;;2.63;;
80408;SDS011;69741;49.464;10.986;2023-04-28T14:03:08;5.53;;;2.63;;
80408;SDS011;69741;49.464;10.986;2023-04-28T14:05:33;5.22;;;2.47;;
80408;SDS011;69741;49.464;10.986;2023-04-28T14:07:59;6.40;;;2.90;;
80408;SDS011;69741;49.464;10.986;2023-04-28T14:10:27;6.22;;;3.03;;
80408;SDS011;69741;49.464;10.986;2023-04-28T14:12:53;6.32;;;3.42;;
80408;SDS011;69741;49.464;10.986;2023-04-28T14:15:18;6.23;;;2.93;;
80408;SDS011;69741;49.464;10.986;2023-04-28T14:17:43;5.97;;;2.95;;
80408;SDS011;69741;49.464;10.986;2023-04-28T14:20:08;7.27;;;3.97;;
80408;SDS011;69741;49.464;10.986;2023-04-28T14:22:35;5.18;;;2.75;;
80408;SDS011;69741;49.464;10.986;2023-04-28T14:25:00;6.73;;;2.93;;
80408;SDS011;69741;49.464;10.986;2023-04-28T14:27:25;5.40;;;2.87;;
80408;SDS011;69741;49.464;10.986;2023-04-28T14:29:51;6.38;;;3.20;;
80408;SDS011;69741;49.464;10.986;2023-04-28T14:32:16;7.60;;;3.50;;
80408;SDS011;69741;49.464;10.986;2023-04-28T14:34:45;4.82;;;2.67;;
80408;SDS011;69741;49.464;10.986;2023-04-28T14:37:10;5.80;;;2.83;;
80408;SDS011;69741;49.464;10.986;2023-04-28T14:39:36;5.10;;;2.83;;
80408;SDS011;69741;49.464;10.986;2023-04-28T14:42:01;6.38;;;3.00;;
80408;SDS011;69741;49.464;10.986;2023-04-28T14:44:27;7.88;;;2.83;;
80408;SDS011;69741;49.464;10.986;2023-04-28T14:46:53;5.53;;;3.50;;